Time;durP1;ratioP1;P1;durP2;ratioP2;P2;SDS_P1;SDS_P2;PMS_P1;PMS_P2;Temp;Humidity;BMP_temperature;BMP_pressure;BME280_temperature;BME280_humidity;BME280_pressure;Samples;Min_cycle;Max_cycle;Signal;HPM_P1;HPM_P2
2022/01/16 00:01:45;;;;;;;15.15;8.32;;;;;;;;;;5011189;28;20246;-68
2022/01/16 00:04:09;;;;;;;15.88;9.00;;;;;;;;;;5012053;28;20099;-70
2022/01/16 00:06:45;;;;;;;16.98;9.70;;;;;;;;;;5011408;28;20140;-69
2022/01/16 00:09:13;;;;;;;18.13;10.30;;;;;;;;;;4985240;28;20121;-70
2022/01/16 00:11:39;;;;;;;16.77;9.10;;;;;;;;;;4997145;28;20140;-70
2022/01/16 00:14:07;;;;;;;16.42;8.82;;;;;;;;;;5018557;28;20579;-70
2022/01/16 00:16:39;;;;;;;16.13;8.50;;;;;;;;;;5021964;28;20025;-71
2022/01/16 00:19:16;;;;;;;15.43;8.70;;;;;;;;;;5003021;28;20454;-70
2022/01/16 00:21:45;;;;;;;15.30;8.40;;;;;;;;;;5006598;28;20599;-69
2022/01/16 00:24:13;;;;;;;18.60;9.73;;;;;;;;;;5009885;28;20054;-69
2022/01/16 00:26:40;;;;;;;19.63;11.15;;;;;;;;;;5009068;28;20052;-69
2022/01/16 00:29:08;;;;;;;17.73;9.90;;;;;;;;;;5001442;28;20038;-69
2022/01/16 00:31:38;;;;;;;15.55;8.07;;;;;;;;;;5000325;28;20033;-69
2022/01/16 00:34:10;;;;;;;13.57;7.25;;;;;;;;;;5006158;28;20064;-69
2022/01/16 00:36:38;;;;;;;13.30;6.50;;;;;;;;;;5007150;28;20041;-70
2022/01/16 00:39:08;;;;;;;16.25;8.25;;;;;;;;;;5007732;28;20145;-69
2022/01/16 00:41:35;;;;;;;14.30;7.20;;;;;;;;;;4986270;28;20045;-69
2022/01/16 00:44:05;;;;;;;17.20;8.50;;;;;;;;;;5005045;28;20038;-69
2022/01/16 00:46:34;;;;;;;18.40;8.75;;;;;;;;;;5000204;28;20096;-69
2022/01/16 00:49:02;;;;;;;15.95;8.05;;;;;;;;;;4974485;28;20080;-69
2022/01/16 00:51:32;;;;;;;15.55;7.60;;;;;;;;;;4966707;28;20647;-69
2022/01/16 00:53:59;;;;;;;14.15;6.40;;;;;;;;;;4977849;28;20026;-69
2022/01/16 00:56:27;;;;;;;12.63;5.93;;;;;;;;;;4976952;28;20046;-69
2022/01/16 00:58:56;;;;;;;10.27;4.53;;;;;;;;;;4952920;28;20108;-70
2022/01/16 01:01:25;;;;;;;12.00;6.15;;;;;;;;;;4978234;28;20148;-70
2022/01/16 01:03:57;;;;;;;18.13;8.68;;;;;;;;;;4949438;28;20042;-69
2022/01/16 01:06:26;;;;;;;15.68;7.38;;;;;;;;;;4941219;28;20064;-69
2022/01/16 01:08:52;;;;;;;13.70;6.60;;;;;;;;;;4962289;28;20568;-69
2022/01/16 01:11:24;;;;;;;16.83;8.45;;;;;;;;;;4979760;28;20041;-69
2022/01/16 01:19:20;;;;;;;13.05;5.38;;;;;;;;;;4960580;28;20435;-69
2022/01/16 01:21:49;;;;;;;13.27;5.53;;;;;;;;;;4956782;28;20038;-69
2022/01/16 01:24:17;;;;;;;11.95;4.80;;;;;;;;;;4952735;28;20510;-69
2022/01/16 01:27:13;;;;;;;10.57;4.85;;;;;;;;;;4983528;28;20571;-69
2022/01/16 01:29:39;;;;;;;9.93;4.15;;;;;;;;;;4981461;28;20137;-70
2022/01/16 01:32:08;;;;;;;9.18;3.90;;;;;;;;;;4993154;28;20045;-70
2022/01/16 01:34:34;;;;;;;12.38;5.15;;;;;;;;;;5003750;28;20254;-70
2022/01/16 01:37:01;;;;;;;13.10;6.07;;;;;;;;;;5008296;28;20061;-70
2022/01/16 01:39:29;;;;;;;12.30;6.03;;;;;;;;;;5008168;28;20086;-69
2022/01/16 01:42:07;;;;;;;12.68;5.35;;;;;;;;;;5010308;28;20051;-69
2022/01/16 01:52:53;;;;;;;11.77;4.80;;;;;;;;;;5005317;28;20040;-70
2022/01/16 01:55:24;;;;;;;12.52;4.65;;;;;;;;;;4986220;28;20101;-70
2022/01/16 01:57:51;;;;;;;13.88;6.55;;;;;;;;;;5012056;28;20064;-70
2022/01/16 02:00:19;;;;;;;16.48;8.57;;;;;;;;;;4999986;28;20116;-70
2022/01/16 02:03:07;;;;;;;15.77;8.05;;;;;;;;;;5005686;28;20057;-70
2022/01/16 02:05:37;;;;;;;12.95;5.95;;;;;;;;;;5007269;28;20037;-70
2022/01/16 02:08:07;;;;;;;11.40;5.28;;;;;;;;;;5010771;28;20057;-70
2022/01/16 02:10:46;;;;;;;12.55;5.32;;;;;;;;;;5000966;28;20061;-70
2022/01/16 02:13:35;;;;;;;11.82;4.78;;;;;;;;;;5003329;28;20075;-70
2022/01/16 02:30:37;;;;;;;10.38;3.90;;;;;;;;;;5008170;28;20804;-69
2022/01/16 02:32:50;;;;;;;;;;;;;;;;;;5032039;28;21223;-70
2022/01/16 02:35:19;;;;;;;8.80;3.20;;;;;;;;;;5021649;28;20040;-70
2022/01/16 02:37:47;;;;;;;;;;;;;;;;;;5028879;28;20037;-69
2022/01/16 02:40:20;;;;;;;8.63;3.20;;;;;;;;;;5029330;28;19916;-69
2022/01/16 02:42:50;;;;;;;8.93;3.55;;;;;;;;;;5007917;28;20048;-70
2022/01/16 02:45:32;;;;;;;8.43;3.22;;;;;;;;;;5001442;28;20099;-70
2022/01/16 02:48:03;;;;;;;8.93;3.45;;;;;;;;;;5034775;28;20582;-69
2022/01/16 02:50:31;;;;;;;8.10;3.05;;;;;;;;;;5013991;28;20044;-70
2022/01/16 02:53:14;;;;;;;8.20;3.28;;;;;;;;;;5029567;28;20067;-70
2022/01/16 02:55:44;;;;;;;8.13;2.97;;;;;;;;;;5013145;28;20122;-71
2022/01/16 02:58:13;;;;;;;10.50;3.33;;;;;;;;;;5017512;28;20032;-70
2022/01/16 03:00:42;;;;;;;8.77;3.00;;;;;;;;;;5031355;28;20051;-70
2022/01/16 03:03:09;;;;;;;7.97;2.55;;;;;;;;;;5036337;28;20037;-70
2022/01/16 03:05:37;;;;;;;8.68;3.15;;;;;;;;;;5024711;28;20036;-69
2022/01/16 03:08:06;;;;;;;9.10;3.00;;;;;;;;;;5026403;28;20588;-69
2022/01/16 03:13:22;;;;;;;8.68;3.17;;;;;;;;;;5024773;28;20072;-69
2022/01/16 03:15:52;;;;;;;8.70;3.00;;;;;;;;;;5022712;28;20467;-69
2022/01/16 03:23:49;;;;;;;9.43;3.60;;;;;;;;;;4987575;28;20523;-69
2022/01/16 03:26:18;;;;;;;8.43;2.80;;;;;;;;;;4979232;28;20050;-69
2022/01/16 03:28:47;;;;;;;9.10;3.25;;;;;;;;;;4982965;28;20028;-70
2022/01/16 03:31:16;;;;;;;10.30;3.92;;;;;;;;;;4967972;28;20469;-69
2022/01/16 03:33:42;;;;;;;9.30;3.58;;;;;;;;;;4982359;28;20038;-71
2022/01/16 03:36:08;;;;;;;;;;;;;;;;;;4983608;28;20026;-69
2022/01/16 03:38:37;;;;;;;8.73;3.38;;;;;;;;;;4985994;28;19967;-69
2022/01/16 03:41:10;;;;;;;9.25;3.40;;;;;;;;;;4982376;28;20053;-68
2022/01/16 03:43:38;;;;;;;9.65;3.45;;;;;;;;;;4967230;28;20088;-70
2022/01/16 03:49:00;;;;;;;7.00;2.45;;;;;;;;;;4984293;28;20255;-69
2022/01/16 03:51:30;;;;;;;6.75;2.45;;;;;;;;;;4981506;28;20225;-69
2022/01/16 03:54:00;;;;;;;7.38;2.55;;;;;;;;;;4985660;28;20038;-69
2022/01/16 03:56:29;;;;;;;7.85;2.85;;;;;;;;;;4985084;28;20433;-69
2022/01/16 03:58:56;;;;;;;7.95;2.97;;;;;;;;;;4986454;28;20331;-69
2022/01/16 04:01:25;;;;;;;9.68;3.13;;;;;;;;;;4985700;28;20108;-69
2022/01/16 04:03:56;;;;;;;8.52;3.35;;;;;;;;;;4968810;28;20157;-69
2022/01/16 04:06:26;;;;;;;10.32;3.58;;;;;;;;;;4967040;28;20133;-69
2022/01/16 04:08:53;;;;;;;10.32;3.70;;;;;;;;;;4986687;28;20082;-69
2022/01/16 04:11:22;;;;;;;10.38;3.55;;;;;;;;;;5005413;28;20890;-69
2022/01/16 04:13:54;;;;;;;10.23;4.15;;;;;;;;;;5005020;28;20140;-69
2022/01/16 04:16:25;;;;;;;10.13;3.88;;;;;;;;;;5009716;28;20761;-69
2022/01/16 04:18:51;;;;;;;9.02;3.45;;;;;;;;;;5013140;28;20076;-69
2022/01/16 04:21:28;;;;;;;8.13;3.05;;;;;;;;;;5007325;28;20477;-69
2022/01/16 04:23:56;;;;;;;8.63;3.03;;;;;;;;;;5007311;28;20116;-69
2022/01/16 04:26:25;;;;;;;8.05;2.80;;;;;;;;;;4991292;28;20468;-69
2022/01/16 04:28:55;;;;;;;6.47;2.42;;;;;;;;;;5011539;28;20030;-69
2022/01/16 04:31:25;;;;;;;9.38;3.13;;;;;;;;;;5003619;28;20026;-69
2022/01/16 04:33:53;;;;;;;9.05;3.60;;;;;;;;;;5013573;28;20848;-69
2022/01/16 04:36:24;;;;;;;9.13;3.97;;;;;;;;;;5003203;28;20064;-69
2022/01/16 04:38:55;;;;;;;11.15;4.00;;;;;;;;;;5007289;28;20469;-69
2022/01/16 04:44:09;;;;;;;10.27;3.92;;;;;;;;;;5015407;28;20139;-69
2022/01/16 04:46:36;;;;;;;8.52;3.38;;;;;;;;;;5002215;28;20033;-69
2022/01/16 04:49:04;;;;;;;9.88;3.60;;;;;;;;;;4984932;28;20378;-69
2022/01/16 04:51:31;;;;;;;8.45;2.95;;;;;;;;;;5007021;28;20021;-69
2022/01/16 04:53:58;;;;;;;8.48;2.88;;;;;;;;;;5005879;28;20033;-70
2022/01/16 04:56:26;;;;;;;8.43;2.72;;;;;;;;;;5003446;28;20034;-70
2022/01/16 04:59:02;;;;;;;9.18;3.33;;;;;;;;;;5008652;28;20036;-70
2022/01/16 05:01:30;;;;;;;8.67;3.23;;;;;;;;;;5008303;28;20037;-69
2022/01/16 05:03:59;;;;;;;7.75;2.60;;;;;;;;;;5009371;28;20150;-69
2022/01/16 05:06:26;;;;;;;8.77;2.80;;;;;;;;;;5005475;28;20150;-69
2022/01/16 05:08:57;;;;;;;7.00;2.53;;;;;;;;;;5009829;28;20128;-69
2022/01/16 05:11:26;;;;;;;7.90;2.70;;;;;;;;;;5003875;28;20073;-69
2022/01/16 05:16:37;;;;;;;7.10;2.53;;;;;;;;;;5003546;28;20119;-69
2022/01/16 05:19:06;;;;;;;6.57;2.33;;;;;;;;;;5008446;28;20037;-69
2022/01/16 05:21:36;;;;;;;6.72;2.42;;;;;;;;;;5007150;28;22682;-69
2022/01/16 05:24:08;;;;;;;6.15;2.22;;;;;;;;;;5009831;28;20565;-69
2022/01/16 05:26:53;;;;;;;7.50;2.30;;;;;;;;;;5005651;28;20103;-69
2022/01/16 05:29:22;;;;;;;7.00;2.40;;;;;;;;;;5000761;28;20038;-69
2022/01/16 05:31:55;;;;;;;7.03;2.40;;;;;;;;;;4993914;28;20033;-69
2022/01/16 05:34:25;;;;;;;6.85;2.50;;;;;;;;;;5004265;28;20108;-69
2022/01/16 05:36:52;;;;;;;7.40;2.55;;;;;;;;;;5003203;28;20025;-69
2022/01/16 05:39:21;;;;;;;7.60;2.45;;;;;;;;;;4999377;28;20033;-69
2022/01/16 05:41:48;;;;;;;9.05;2.60;;;;;;;;;;5011089;28;20091;-69
2022/01/16 05:44:19;;;;;;;6.88;2.60;;;;;;;;;;5002867;28;20026;-69
2022/01/16 05:46:47;;;;;;;9.27;2.60;;;;;;;;;;5005890;28;20029;-69
2022/01/16 05:49:34;;;;;;;6.97;2.55;;;;;;;;;;5008245;28;20090;-69
2022/01/16 05:52:00;;;;;;;7.85;2.70;;;;;;;;;;5006957;28;20549;-69
2022/01/16 05:54:29;;;;;;;8.38;2.80;;;;;;;;;;5002857;28;20021;-69
2022/01/16 05:56:57;;;;;;;7.72;2.83;;;;;;;;;;5009885;28;20040;-70
2022/01/16 05:59:23;;;;;;;9.40;3.03;;;;;;;;;;5003572;28;20120;-70
2022/01/16 06:01:49;;;;;;;8.35;2.70;;;;;;;;;;5011326;28;20032;-69
2022/01/16 06:04:16;;;;;;;;;;;;;;;;;;5007069;28;20044;-69
2022/01/16 06:06:43;;;;;;;8.85;2.65;;;;;;;;;;5007507;28;20435;-69
2022/01/16 06:09:10;;;;;;;7.53;2.72;;;;;;;;;;5007306;28;20112;-69
2022/01/16 06:11:38;;;;;;;7.45;2.33;;;;;;;;;;5004194;28;20032;-69
2022/01/16 06:14:07;;;;;;;7.38;2.65;;;;;;;;;;5006290;28;20021;-69
2022/01/16 06:16:35;;;;;;;7.03;2.33;;;;;;;;;;5005401;28;20026;-69
2022/01/16 06:19:02;;;;;;;7.13;2.30;;;;;;;;;;5006937;28;20040;-69
2022/01/16 06:21:30;;;;;;;7.18;2.30;;;;;;;;;;5004234;28;20029;-69
2022/01/16 06:23:58;;;;;;;7.97;2.50;;;;;;;;;;5005879;28;20483;-69
2022/01/16 06:26:34;;;;;;;9.38;2.88;;;;;;;;;;5006261;28;20083;-69
2022/01/16 06:29:04;;;;;;;7.60;2.80;;;;;;;;;;5006764;28;20040;-69
2022/01/16 06:31:32;;;;;;;7.68;3.00;;;;;;;;;;5004140;28;20025;-69
2022/01/16 06:34:01;;;;;;;7.25;2.83;;;;;;;;;;5004736;28;20041;-69
2022/01/16 06:36:29;;;;;;;7.15;2.50;;;;;;;;;;5006621;28;20052;-69
2022/01/16 06:38:57;;;;;;;7.13;3.00;;;;;;;;;;5003922;28;20181;-69
2022/01/16 06:41:26;;;;;;;9.05;2.83;;;;;;;;;;5004139;28;20030;-69
2022/01/16 06:43:55;;;;;;;8.75;3.13;;;;;;;;;;5009952;28;20079;-69
2022/01/16 06:46:22;;;;;;;8.45;2.95;;;;;;;;;;5020385;28;20729;-69
2022/01/16 06:48:49;;;;;;;6.93;2.90;;;;;;;;;;5021253;28;20041;-69
2022/01/16 06:51:18;;;;;;;7.45;2.95;;;;;;;;;;5022157;28;20124;-69
2022/01/16 06:53:51;;;;;;;8.18;2.88;;;;;;;;;;5005980;28;20582;-71
2022/01/16 06:56:18;;;;;;;7.88;2.92;;;;;;;;;;4998726;28;20028;-69
2022/01/16 06:58:44;;;;;;;8.07;2.92;;;;;;;;;;5003862;28;20945;-69
2022/01/16 07:01:10;;;;;;;8.27;2.95;;;;;;;;;;5019871;28;20080;-69
2022/01/16 07:03:36;;;;;;;;;;;;;;;;;;5001686;28;20138;-70
2022/01/16 07:06:03;;;;;;;8.02;2.95;;;;;;;;;;5015549;28;19917;-69
2022/01/16 07:08:32;;;;;;;8.73;3.30;;;;;;;;;;4999485;28;20033;-69
2022/01/16 07:11:00;;;;;;;8.40;3.30;;;;;;;;;;5020891;28;20048;-69
2022/01/16 07:13:28;;;;;;;9.35;3.47;;;;;;;;;;5011207;28;20056;-69
2022/01/16 07:15:56;;;;;;;9.63;3.40;;;;;;;;;;5009067;28;20483;-69
2022/01/16 07:18:27;;;;;;;8.38;3.17;;;;;;;;;;5015057;28;20136;-70
2022/01/16 07:20:55;;;;;;;9.43;3.53;;;;;;;;;;5019094;28;20036;-69
2022/01/16 07:23:23;;;;;;;8.40;3.28;;;;;;;;;;5015585;28;20188;-69
2022/01/16 07:25:52;;;;;;;8.23;2.80;;;;;;;;;;5016716;28;20140;-69
2022/01/16 07:28:22;;;;;;;9.30;2.97;;;;;;;;;;5015136;28;20052;-70
2022/01/16 07:30:51;;;;;;;8.25;2.90;;;;;;;;;;5019779;28;20107;-69
2022/01/16 07:33:19;;;;;;;10.35;3.17;;;;;;;;;;5019642;28;20036;-69
2022/01/16 07:35:47;;;;;;;9.35;3.15;;;;;;;;;;4991879;28;20090;-70
2022/01/16 07:38:14;;;;;;;8.05;3.05;;;;;;;;;;5002320;28;20054;-69
2022/01/16 07:40:40;;;;;;;;;;;;;;;;;;5007113;28;20025;-69
2022/01/16 07:43:07;;;;;;;9.30;4.07;;;;;;;;;;5007711;28;19913;-69
2022/01/16 07:45:33;;;;;;;9.25;4.10;;;;;;;;;;5003747;28;20422;-69
2022/01/16 07:48:00;;;;;;;11.40;5.30;;;;;;;;;;5002148;28;20069;-69
2022/01/16 07:50:28;;;;;;;14.77;7.80;;;;;;;;;;5006096;28;20103;-68
2022/01/16 07:52:54;;;;;;;16.90;9.80;;;;;;;;;;5003337;28;20075;-70
2022/01/16 07:55:22;;;;;;;17.40;9.18;;;;;;;;;;5001558;28;20026;-71
2022/01/16 07:57:51;;;;;;;14.48;7.82;;;;;;;;;;5008119;28;20142;-69
2022/01/16 08:00:20;;;;;;;15.65;7.70;;;;;;;;;;5005475;28;20116;-70
2022/01/16 08:02:48;;;;;;;13.00;6.68;;;;;;;;;;5010510;28;20065;-69
2022/01/16 08:05:16;;;;;;;15.80;7.70;;;;;;;;;;5007599;28;20043;-70
2022/01/16 08:07:44;;;;;;;14.52;8.20;;;;;;;;;;5011037;28;20116;-70
2022/01/16 08:10:12;;;;;;;13.45;7.60;;;;;;;;;;5009503;28;20029;-69
2022/01/16 08:12:39;;;;;;;13.43;6.43;;;;;;;;;;5010110;28;20025;-69
2022/01/16 08:15:06;;;;;;;11.40;5.80;;;;;;;;;;5012467;28;20087;-70
2022/01/16 08:17:36;;;;;;;11.15;5.65;;;;;;;;;;5003215;28;21480;-70
2022/01/16 08:20:03;;;;;;;11.90;4.82;;;;;;;;;;5008264;28;20670;-70
2022/01/16 08:22:30;;;;;;;10.32;4.80;;;;;;;;;;5009753;28;20033;-69
2022/01/16 08:24:56;;;;;;;10.85;5.72;;;;;;;;;;5009386;28;20034;-69
2022/01/16 08:27:24;;;;;;;11.80;5.95;;;;;;;;;;5006909;28;20148;-70
2022/01/16 08:29:52;;;;;;;12.48;7.18;;;;;;;;;;5010974;28;20368;-70
2022/01/16 08:35:36;;;;;;;13.50;8.50;;;;;;;;;;5003764;28;20040;-70
2022/01/16 08:38:02;;;;;;;12.85;8.10;;;;;;;;;;5009616;28;20583;-70
2022/01/16 08:40:30;;;;;;;11.90;7.25;;;;;;;;;;5008707;28;20086;-70
2022/01/16 08:42:58;;;;;;;13.05;7.40;;;;;;;;;;5008182;28;20029;-69
2022/01/16 08:45:32;;;;;;;11.40;6.95;;;;;;;;;;5007109;28;20059;-69
2022/01/16 08:47:59;;;;;;;12.32;7.80;;;;;;;;;;5010235;28;20053;-69
2022/01/16 08:50:26;;;;;;;15.48;9.45;;;;;;;;;;5007573;28;20036;-69
2022/01/16 08:52:54;;;;;;;14.45;9.25;;;;;;;;;;5008239;28;20029;-69
2022/01/16 08:55:23;;;;;;;15.00;8.00;;;;;;;;;;5010398;28;20068;-69
2022/01/16 08:57:51;;;;;;;14.05;8.27;;;;;;;;;;5009909;28;20044;-69
2022/01/16 09:00:19;;;;;;;14.45;8.73;;;;;;;;;;5007364;28;20025;-70
2022/01/16 09:02:45;;;;;;;15.65;8.70;;;;;;;;;;5008165;28;20037;-70
2022/01/16 09:05:12;;;;;;;15.48;9.55;;;;;;;;;;5008631;28;20137;-70
2022/01/16 09:07:39;;;;;;;15.73;9.93;;;;;;;;;;5004657;28;20133;-70
2022/01/16 09:10:06;;;;;;;14.77;9.40;;;;;;;;;;5011918;28;20076;-70
2022/01/16 09:12:34;;;;;;;15.95;10.13;;;;;;;;;;5004003;28;20731;-68
2022/01/16 09:15:06;;;;;;;15.88;9.50;;;;;;;;;;5008666;28;20040;-69
2022/01/16 09:17:32;;;;;;;14.30;8.02;;;;;;;;;;5009594;28;20164;-70
2022/01/16 09:20:00;;;;;;;12.23;6.15;;;;;;;;;;5011135;28;20112;-70
2022/01/16 09:22:28;;;;;;;11.27;4.70;;;;;;;;;;5005632;28;20033;-71
2022/01/16 09:24:57;;;;;;;10.68;4.45;;;;;;;;;;5011314;28;20025;-69
2022/01/16 09:27:33;;;;;;;9.02;3.67;;;;;;;;;;5006777;28;21639;-70
2022/01/16 09:30:01;;;;;;;8.13;3.17;;;;;;;;;;5007957;28;20080;-70
2022/01/16 09:32:27;;;;;;;9.13;3.30;;;;;;;;;;5005860;28;20037;-69
2022/01/16 09:34:54;;;;;;;8.45;3.38;;;;;;;;;;5010303;28;20030;-70
2022/01/16 09:37:21;;;;;;;8.45;3.40;;;;;;;;;;5006779;28;20033;-70
2022/01/16 09:39:50;;;;;;;9.95;3.75;;;;;;;;;;5010384;28;20752;-69
2022/01/16 09:42:19;;;;;;;8.82;3.90;;;;;;;;;;5001380;28;20100;-70
2022/01/16 09:44:46;;;;;;;10.27;3.97;;;;;;;;;;5003029;28;20029;-70
2022/01/16 09:47:12;;;;;;;8.80;3.58;;;;;;;;;;5003763;28;20053;-70
2022/01/16 09:49:39;;;;;;;;;;;;;;;;;;5012283;28;20025;-70
2022/01/16 09:52:07;;;;;;;8.18;3.03;;;;;;;;;;5004486;28;19915;-70
2022/01/16 09:54:37;;;;;;;8.85;3.58;;;;;;;;;;5003089;28;20112;-70
2022/01/16 09:57:04;;;;;;;10.00;4.05;;;;;;;;;;5002063;28;20477;-70
2022/01/16 09:59:33;;;;;;;11.50;5.07;;;;;;;;;;5005623;28;20148;-70
2022/01/16 10:02:00;;;;;;;12.77;6.00;;;;;;;;;;5000574;28;20033;-71
2022/01/16 10:04:26;;;;;;;;;;;;;;;;;;5001410;28;20033;-71
2022/01/16 10:06:58;;;;;;;12.43;7.07;;;;;;;;;;5002339;28;19975;-71
2022/01/16 10:09:24;;;;;;;14.00;8.10;;;;;;;;;;4997751;28;20061;-70
2022/01/16 10:12:02;;;;;;;15.07;8.75;;;;;;;;;;4999238;28;20029;-70
2022/01/16 10:14:46;;;;;;;14.77;8.32;;;;;;;;;;5008533;28;20168;-70
2022/01/16 10:17:15;;;;;;;12.80;6.95;;;;;;;;;;5002654;28;20664;-71
2022/01/16 10:19:43;;;;;;;14.23;7.10;;;;;;;;;;4998185;28;20046;-70
2022/01/16 10:22:11;;;;;;;16.27;7.28;;;;;;;;;;5011401;28;20017;-69
2022/01/16 10:24:39;;;;;;;15.02;7.95;;;;;;;;;;5005737;28;20030;-70
2022/01/16 10:27:12;;;;;;;15.70;7.65;;;;;;;;;;5001815;28;20116;-70
2022/01/16 10:29:51;;;;;;;16.23;10.00;;;;;;;;;;5008156;28;20044;-70
2022/01/16 10:32:23;;;;;;;15.57;9.15;;;;;;;;;;4998247;28;20155;-70
2022/01/16 10:34:53;;;;;;;16.17;9.30;;;;;;;;;;5000921;28;20127;-69
2022/01/16 10:37:30;;;;;;;15.10;8.55;;;;;;;;;;5005103;28;20187;-70
2022/01/16 10:40:09;;;;;;;14.43;7.82;;;;;;;;;;5004355;28;20058;-71
2022/01/16 10:42:36;;;;;;;14.07;6.78;;;;;;;;;;5002016;28;20025;-71
2022/01/16 10:45:06;;;;;;;12.48;6.85;;;;;;;;;;5001676;28;20029;-70
2022/01/16 10:47:41;;;;;;;12.13;5.38;;;;;;;;;;5001578;28;20091;-70
2022/01/16 10:50:19;;;;;;;12.40;5.97;;;;;;;;;;4999052;28;20088;-69
2022/01/16 10:52:51;;;;;;;12.95;5.78;;;;;;;;;;4996877;28;20115;-72
2022/01/16 10:55:19;;;;;;;11.80;5.28;;;;;;;;;;4996964;28;20021;-69
2022/01/16 10:57:47;;;;;;;10.60;5.13;;;;;;;;;;5000053;28;20716;-70
2022/01/16 11:00:18;;;;;;;10.77;3.67;;;;;;;;;;4995037;28;20065;-70
2022/01/16 11:02:46;;;;;;;9.75;3.30;;;;;;;;;;4981065;28;20632;-70
2022/01/16 11:05:18;;;;;;;8.07;2.70;;;;;;;;;;5001262;28;20041;-70
2022/01/16 11:07:44;;;;;;;8.88;2.60;;;;;;;;;;5000999;28;20060;-71
2022/01/16 11:10:23;;;;;;;9.05;3.03;;;;;;;;;;5003864;28;20029;-70
2022/01/16 11:12:52;;;;;;;9.88;3.17;;;;;;;;;;5006360;28;20482;-70
2022/01/16 11:15:19;;;;;;;7.65;2.90;;;;;;;;;;4999493;28;20030;-70
2022/01/16 11:17:46;;;;;;;9.43;3.25;;;;;;;;;;5005416;28;20091;-70
2022/01/16 11:20:14;;;;;;;8.43;2.85;;;;;;;;;;5000352;28;20034;-70
2022/01/16 11:23:03;;;;;;;8.10;2.25;;;;;;;;;;4999100;28;20030;-70
2022/01/16 11:25:41;;;;;;;9.10;2.85;;;;;;;;;;5001603;28;20071;-70
2022/01/16 11:28:13;;;;;;;9.45;3.40;;;;;;;;;;5006487;28;20220;-70
2022/01/16 11:30:41;;;;;;;9.43;3.20;;;;;;;;;;5004417;28;20029;-70
2022/01/16 11:33:08;;;;;;;8.25;3.60;;;;;;;;;;4985630;28;20030;-70
2022/01/16 11:35:43;;;;;;;10.13;3.75;;;;;;;;;;5002910;28;20021;-70
2022/01/16 11:38:11;;;;;;;8.98;3.55;;;;;;;;;;5005885;28;20041;-70
2022/01/16 11:40:43;;;;;;;10.55;4.15;;;;;;;;;;4999790;28;20029;-70
2022/01/16 11:43:30;;;;;;;10.25;4.47;;;;;;;;;;5002403;28;20065;-70
2022/01/16 11:45:56;;;;;;;11.80;5.18;;;;;;;;;;5004042;28;20018;-69
2022/01/16 11:48:42;;;;;;;8.32;3.33;;;;;;;;;;5005660;28;20037;-71
2022/01/16 11:51:27;;;;;;;8.80;2.83;;;;;;;;;;5004058;28;20058;-71
2022/01/16 11:54:13;;;;;;;9.90;3.30;;;;;;;;;;5001685;28;20069;-70
2022/01/16 11:59:18;;;;;;;10.40;3.83;;;;;;;;;;5007604;28;20041;-69
2022/01/16 12:01:45;;;;;;;10.05;3.67;;;;;;;;;;5003811;28;20136;-71
2022/01/16 12:04:30;;;;;;;9.55;4.00;;;;;;;;;;5005271;28;20029;-69
2022/01/16 12:06:57;;;;;;;11.27;5.47;;;;;;;;;;5005860;28;20046;-70
2022/01/16 12:09:37;;;;;;;12.85;5.85;;;;;;;;;;5005371;28;20025;-70
2022/01/16 12:12:24;;;;;;;11.15;4.85;;;;;;;;;;5002520;28;20080;-70
2022/01/16 12:14:52;;;;;;;10.95;4.50;;;;;;;;;;5007424;28;20431;-71
2022/01/16 12:17:54;;;;;;;11.52;5.22;;;;;;;;;;5008169;28;20139;-71
2022/01/16 12:20:22;;;;;;;10.90;4.90;;;;;;;;;;4989918;28;20025;-70
2022/01/16 12:22:57;;;;;;;12.00;5.55;;;;;;;;;;4991041;28;20045;-70
2022/01/16 12:25:30;;;;;;;9.23;4.60;;;;;;;;;;5005296;28;20045;-70
2022/01/16 12:28:06;;;;;;;9.05;3.67;;;;;;;;;;5008642;28;20045;-70
2022/01/16 12:30:33;;;;;;;;;;;;;;;;;;5005924;28;20029;-70
2022/01/16 12:33:03;;;;;;;8.98;3.42;;;;;;;;;;5004253;28;20482;-70
2022/01/16 12:35:46;;;;;;;11.70;4.68;;;;;;;;;;4985142;28;20061;-70
2022/01/16 12:38:23;;;;;;;9.93;4.25;;;;;;;;;;5007476;28;20565;-70
2022/01/16 12:40:59;;;;;;;15.30;6.25;;;;;;;;;;5009376;28;20051;-71
2022/01/16 12:43:29;;;;;;;15.20;7.63;;;;;;;;;;5005285;28;20037;-74
2022/01/16 12:45:57;;;;;;;13.80;7.68;;;;;;;;;;4991505;28;20611;-72
2022/01/16 12:48:25;;;;;;;14.30;8.50;;;;;;;;;;4988416;28;20657;-73
2022/01/16 12:50:58;;;;;;;11.38;5.65;;;;;;;;;;5008147;28;20116;-72
2022/01/16 12:53:42;;;;;;;8.98;3.42;;;;;;;;;;5005483;28;20043;-71
2022/01/16 12:56:28;;;;;;;8.82;4.35;;;;;;;;;;5007742;28;20116;-72
2022/01/16 12:58:57;;;;;;;8.10;3.30;;;;;;;;;;5008601;28;20030;-71
2022/01/16 13:01:24;;;;;;;8.38;2.95;;;;;;;;;;5004714;28;20345;-72
2022/01/16 13:03:51;;;;;;;7.28;2.70;;;;;;;;;;5006867;28;20037;-72
2022/01/16 13:06:32;;;;;;;8.00;3.05;;;;;;;;;;5007265;28;20025;-74
2022/01/16 13:09:03;;;;;;;10.13;3.97;;;;;;;;;;5009257;28;20049;-71
2022/01/16 13:11:32;;;;;;;6.28;2.10;;;;;;;;;;5003933;28;20025;-74
2022/01/16 13:13:59;;;;;;;11.32;5.10;;;;;;;;;;5004010;28;20042;-71
2022/01/16 13:16:27;;;;;;;8.35;3.40;;;;;;;;;;5002883;28;20038;-73
2022/01/16 13:18:59;;;;;;;8.07;2.83;;;;;;;;;;5004042;28;20018;-73
2022/01/16 13:21:33;;;;;;;12.55;6.45;;;;;;;;;;4999975;28;20083;-75
2022/01/16 13:24:00;;;;;;;11.10;6.13;;;;;;;;;;5007800;28;20026;-72
2022/01/16 13:26:28;;;;;;;9.02;3.75;;;;;;;;;;5006335;28;20035;-73
2022/01/16 13:29:06;;;;;;;9.27;3.20;;;;;;;;;;5004514;28;20082;-73
2022/01/16 13:31:34;;;;;;;8.20;3.10;;;;;;;;;;5004893;28;21174;-72
2022/01/16 13:34:11;;;;;;;8.43;3.65;;;;;;;;;;5009002;28;20061;-73
2022/01/16 13:36:39;;;;;;;8.13;3.47;;;;;;;;;;5008324;28;20040;-73
2022/01/16 13:39:06;;;;;;;10.10;4.20;;;;;;;;;;5002595;28;20072;-72
2022/01/16 13:41:33;;;;;;;9.27;3.67;;;;;;;;;;5007326;28;20579;-72
2022/01/16 13:44:00;;;;;;;8.40;2.67;;;;;;;;;;5004262;28;20033;-73
2022/01/16 13:46:29;;;;;;;9.55;4.70;;;;;;;;;;5002678;28;20120;-72
2022/01/16 13:49:03;;;;;;;11.45;5.57;;;;;;;;;;5006133;28;20609;-73
2022/01/16 13:51:31;;;;;;;10.68;4.47;;;;;;;;;;5005740;28;20034;-72
2022/01/16 13:54:10;;;;;;;8.43;3.38;;;;;;;;;;5004404;28;20094;-74
2022/01/16 13:56:38;;;;;;;9.18;4.35;;;;;;;;;;5004169;28;20108;-73
2022/01/16 13:59:11;;;;;;;11.48;6.13;;;;;;;;;;5007419;28;20029;-74
2022/01/16 14:01:40;;;;;;;9.75;3.80;;;;;;;;;;5002025;28;20029;-72
2022/01/16 14:04:13;;;;;;;9.27;4.25;;;;;;;;;;5003287;28;20064;-74
2022/01/16 14:06:48;;;;;;;9.63;4.10;;;;;;;;;;5004793;28;20025;-72
2022/01/16 14:09:16;;;;;;;8.43;3.50;;;;;;;;;;5001094;28;20509;-72
2022/01/16 14:11:44;;;;;;;8.57;3.10;;;;;;;;;;5004952;28;20482;-72
2022/01/16 14:14:11;;;;;;;7.45;2.65;;;;;;;;;;5000970;28;20035;-72
2022/01/16 14:16:41;;;;;;;9.07;3.60;;;;;;;;;;5001658;28;20045;-72
2022/01/16 14:19:13;;;;;;;12.82;5.78;;;;;;;;;;5003091;28;20034;-73
2022/01/16 14:22:02;;;;;;;13.95;6.93;;;;;;;;;;5002255;28;20131;-73
2022/01/16 14:24:38;;;;;;;11.88;6.15;;;;;;;;;;5000126;28;20036;-73
2022/01/16 14:27:08;;;;;;;10.25;3.88;;;;;;;;;;5001359;28;20149;-72
2022/01/16 14:29:42;;;;;;;11.15;4.18;;;;;;;;;;5002333;28;20046;-71
2022/01/16 14:32:10;;;;;;;10.85;4.40;;;;;;;;;;5003722;28;20144;-72
2022/01/16 14:34:36;;;;;;;10.77;4.13;;;;;;;;;;4997608;28;20103;-72
2022/01/16 14:37:10;;;;;;;11.75;6.55;;;;;;;;;;5004989;28;20064;-72
2022/01/16 14:39:38;;;;;;;17.90;9.70;;;;;;;;;;5017948;28;20045;-72
2022/01/16 14:42:05;;;;;;;25.05;16.00;;;;;;;;;;5005242;28;20037;-72
2022/01/16 14:44:34;;;;;;;23.55;15.38;;;;;;;;;;5002093;28;20625;-73
2022/01/16 14:47:03;;;;;;;25.25;16.17;;;;;;;;;;5002596;28;20037;-73
2022/01/16 14:49:32;;;;;;;22.48;14.70;;;;;;;;;;4993210;28;20067;-72
2022/01/16 14:52:00;;;;;;;19.90;13.10;;;;;;;;;;5004022;28;20080;-73
2022/01/16 14:54:28;;;;;;;20.02;12.60;;;;;;;;;;5000909;28;20459;-73
2022/01/16 14:56:55;;;;;;;20.70;13.63;;;;;;;;;;4999342;28;20040;-73
2022/01/16 14:59:23;;;;;;;11.68;6.32;;;;;;;;;;4998696;28;20021;-73
2022/01/16 15:01:50;;;;;;;13.80;7.80;;;;;;;;;;5002671;28;20038;-72
2022/01/16 15:04:17;;;;;;;9.45;4.10;;;;;;;;;;4982051;28;20029;-72
2022/01/16 15:06:46;;;;;;;7.05;2.10;;;;;;;;;;5002583;28;20037;-73
2022/01/16 15:09:13;;;;;;;8.07;3.22;;;;;;;;;;5003609;28;20053;-73
2022/01/16 15:11:40;;;;;;;9.93;5.13;;;;;;;;;;5008325;28;20163;-72
2022/01/16 15:14:08;;;;;;;6.85;2.60;;;;;;;;;;5005763;28;20109;-72
2022/01/16 15:16:36;;;;;;;9.73;4.38;;;;;;;;;;5003300;28;20386;-73
2022/01/16 15:19:08;;;;;;;10.43;3.95;;;;;;;;;;5004388;28;20056;-71
2022/01/16 15:21:44;;;;;;;8.50;3.20;;;;;;;;;;4996935;28;20038;-71
2022/01/16 15:24:12;;;;;;;8.95;3.72;;;;;;;;;;5002918;28;20095;-71
2022/01/16 15:26:39;;;;;;;8.20;2.40;;;;;;;;;;5005900;28;20044;-74
2022/01/16 15:29:08;;;;;;;11.07;4.60;;;;;;;;;;5004384;28;20064;-72
2022/01/16 15:31:36;;;;;;;7.00;2.70;;;;;;;;;;4997268;28;20043;-71
2022/01/16 15:34:03;;;;;;;7.90;3.15;;;;;;;;;;5002868;28;20034;-72
2022/01/16 15:36:32;;;;;;;8.15;3.50;;;;;;;;;;5001753;28;20924;-72
2022/01/16 15:38:58;;;;;;;9.80;4.45;;;;;;;;;;5006563;28;20034;-72
2022/01/16 15:41:25;;;;;;;12.90;6.97;;;;;;;;;;4999344;28;20022;-72
2022/01/16 15:43:53;;;;;;;13.70;7.72;;;;;;;;;;4997303;28;20720;-70
2022/01/16 15:46:23;;;;;;;12.02;6.53;;;;;;;;;;5003838;28;20029;-72